createdAt,value
2018-08-18T00:00:00.032Z,92.40
2018-08-18T00:02:37.675Z,93.10
2018-08-18T00:05:12.354Z,92.20
2018-08-18T00:07:45.930Z,91.90
2018-08-18T00:10:23.224Z,91.40
2018-08-18T00:13:00.775Z,91.50
2018-08-18T00:15:35.167Z,91.00
2018-08-18T00:18:12.947Z,91.20
2018-08-18T00:20:46.139Z,91.50
2018-08-18T00:23:20.968Z,91.30
2018-08-18T00:25:55.331Z,91.20
2018-08-18T00:28:31.069Z,90.90
2018-08-18T00:31:05.058Z,91.50
2018-08-18T00:33:41.906Z,90.70
2018-08-18T00:36:15.406Z,91.50
2018-08-18T00:38:48.812Z,91.70
2018-08-18T00:41:22.517Z,92.40
2018-08-18T00:43:56.424Z,91.50
2018-08-18T00:46:32.684Z,91.10
2018-08-18T00:49:06.077Z,90.90
2018-08-18T00:51:43.173Z,91.00
2018-08-18T00:54:16.885Z,90.70
2018-08-18T00:56:50.914Z,90.70
2018-08-18T00:59:33.265Z,90.70
2018-08-18T01:02:07.794Z,90.90
2018-08-18T01:04:46.021Z,90.30
2018-08-18T01:07:20.809Z,90.80
2018-08-18T01:09:54.963Z,91.20
2018-08-18T01:12:29.005Z,90.50
2018-08-18T01:15:02.124Z,88.60
2018-08-18T01:17:36.280Z,88.00
2018-08-18T01:20:12.527Z,86.90
2018-08-18T01:22:52.754Z,86.20
2018-08-18T01:25:26.033Z,86.60
2018-08-18T01:27:59.985Z,86.00
2018-08-18T01:30:33.440Z,86.60
2018-08-18T01:33:07.245Z,86.00
2018-08-18T01:35:40.657Z,86.40
2018-08-18T01:38:14.050Z,86.30
2018-08-18T01:40:49.220Z,84.70
2018-08-18T01:43:22.763Z,84.50
2018-08-18T01:46:00.045Z,86.00
2018-08-18T01:48:34.860Z,86.80
2018-08-18T01:51:17.373Z,87.00
2018-08-18T01:53:52.103Z,86.80
2018-08-18T01:56:25.899Z,89.30
2018-08-18T01:58:59.641Z,88.70
2018-08-18T02:01:33.937Z,87.60
2018-08-18T02:04:07.083Z,88.60
2018-08-18T02:06:40.350Z,90.00
2018-08-18T02:09:13.702Z,90.40
2018-08-18T02:11:50.954Z,90.90
2018-08-18T02:14:26.496Z,91.60
2018-08-18T02:17:09.516Z,91.30
2018-08-18T02:19:43.229Z,91.70
2018-08-18T02:22:17.134Z,92.80
2018-08-18T02:24:51.781Z,93.20
2018-08-18T02:27:26.977Z,93.90
2018-08-18T02:30:09.191Z,93.90
2018-08-18T02:32:42.804Z,93.80
2018-08-18T02:35:16.018Z,94.90
2018-08-18T02:37:49.340Z,95.30
2018-08-18T02:40:22.769Z,95.00
2018-08-18T02:42:56.170Z,95.40
2018-08-18T02:45:30.287Z,96.30
2018-08-18T02:48:13.412Z,95.80
2018-08-18T02:50:52.222Z,96.80
2018-08-18T02:53:34.382Z,96.80
2018-08-18T02:56:08.295Z,97.40
2018-08-18T02:58:42.519Z,97.00
2018-08-18T03:01:17.852Z,97.40
2018-08-18T03:03:51.286Z,97.50
2018-08-18T03:06:25.309Z,97.40
2018-08-18T03:09:00.159Z,97.70
2018-08-18T03:11:33.638Z,98.20
2018-08-18T03:14:07.102Z,98.60
2018-08-18T03:16:42.792Z,99.20
2018-08-18T03:19:18.197Z,99.40
2018-08-18T03:21:51.773Z,99.30
2018-08-18T03:24:26.155Z,99.80
2018-08-18T03:27:00.250Z,99.60
2018-08-18T03:29:38.500Z,99.90
2018-08-18T03:32:12.958Z,99.90
2018-08-18T03:34:46.982Z,99.90
2018-08-18T03:37:30.987Z,99.90
2018-08-18T03:40:04.339Z,99.90
2018-08-18T03:42:42.888Z,99.90
2018-08-18T03:45:16.231Z,99.90
2018-08-18T03:47:49.648Z,99.90
2018-08-18T03:50:23.010Z,99.90
2018-08-18T03:52:56.252Z,99.90
2018-08-18T03:55:39.668Z,99.90
2018-08-18T03:58:13.760Z,99.90
2018-08-18T04:00:47.551Z,99.90
2018-08-18T04:03:21.854Z,99.90
2018-08-18T04:05:55.404Z,99.90
2018-08-18T04:08:32.758Z,99.90
2018-08-18T04:11:07.039Z,99.90
2018-08-18T04:13:40.588Z,99.90
2018-08-18T04:16:13.744Z,99.90
2018-08-18T04:18:48.881Z,99.90
2018-08-18T04:21:22.913Z,99.90
2018-08-18T04:23:56.306Z,99.90
2018-08-18T04:26:32.015Z,99.90
2018-08-18T04:29:06.077Z,99.90
2018-08-18T04:31:39.900Z,99.90
2018-08-18T04:34:15.128Z,99.90
2018-08-18T04:36:49.670Z,99.90
2018-08-18T04:39:24.768Z,99.90
2018-08-18T04:42:06.756Z,99.90
2018-08-18T04:44:51.572Z,99.90
2018-08-18T04:47:35.644Z,99.90
2018-08-18T04:50:09.119Z,99.90
2018-08-18T04:52:42.479Z,99.90
2018-08-18T04:55:18.470Z,99.90
2018-08-18T04:57:53.502Z,99.90
2018-08-18T05:00:29.740Z,99.90
2018-08-18T05:03:03.532Z,99.90
2018-08-18T05:05:37.511Z,99.90
2018-08-18T05:08:11.585Z,99.90
2018-08-18T05:10:45.887Z,99.90
2018-08-18T05:13:20.350Z,99.90
2018-08-18T05:15:54.060Z,99.90
2018-08-18T05:18:27.484Z,99.90
2018-08-18T05:21:01.735Z,99.90
2018-08-18T05:23:36.709Z,99.90
2018-08-18T05:26:11.120Z,99.90
2018-08-18T05:28:44.885Z,99.90
2018-08-18T05:31:19.600Z,99.90
2018-08-18T05:33:54.006Z,99.90
2018-08-18T05:36:28.009Z,99.90
2018-08-18T05:39:01.490Z,99.90
2018-08-18T05:41:34.963Z,99.90
2018-08-18T05:44:08.660Z,99.90
2018-08-18T05:46:42.554Z,99.90
2018-08-18T05:49:18.354Z,99.90
2018-08-18T05:51:54.709Z,99.90
2018-08-18T05:54:31.178Z,99.90
2018-08-18T05:57:04.541Z,99.90
2018-08-18T05:59:42.243Z,99.90
2018-08-18T06:02:15.591Z,99.90
2018-08-18T06:04:48.995Z,99.90
2018-08-18T06:07:26.850Z,99.90
2018-08-18T06:10:00.293Z,99.90
2018-08-18T06:12:41.136Z,99.90
2018-08-18T06:15:21.873Z,99.90
2018-08-18T06:17:56.119Z,99.90
2018-08-18T06:20:30.647Z,99.90
2018-08-18T06:23:04.721Z,99.90
2018-08-18T06:25:38.264Z,99.90
2018-08-18T06:28:13.738Z,99.90
2018-08-18T06:30:47.163Z,99.90
2018-08-18T06:33:21.460Z,99.90
2018-08-18T06:35:55.040Z,99.90
2018-08-18T06:38:28.189Z,99.90
2018-08-18T06:41:02.519Z,99.90
2018-08-18T06:43:36.693Z,99.90
2018-08-18T06:46:11.738Z,99.90
2018-08-18T06:48:46.025Z,99.90
2018-08-18T06:51:21.873Z,99.90
2018-08-18T06:53:55.611Z,99.90
2018-08-18T06:56:29.006Z,99.90
2018-08-18T06:59:06.142Z,99.90
2018-08-18T07:01:40.655Z,99.90
2018-08-18T07:04:20.695Z,99.90
2018-08-18T07:06:53.958Z,99.90
2018-08-18T07:09:27.137Z,99.90
2018-08-18T07:12:00.748Z,99.90
2018-08-18T07:14:33.914Z,99.90
2018-08-18T07:17:07.212Z,99.90
2018-08-18T07:19:40.402Z,99.90
2018-08-18T07:22:18.751Z,99.90
2018-08-18T07:24:51.821Z,99.90
2018-08-18T07:27:25.305Z,99.90
2018-08-18T07:29:58.714Z,99.90
2018-08-18T07:32:36.271Z,99.90
2018-08-18T07:35:09.517Z,99.90
2018-08-18T07:37:42.955Z,99.90
2018-08-18T07:40:16.399Z,99.90
2018-08-18T07:42:56.584Z,99.90
2018-08-18T15:33:51.706Z,99.90
2018-08-18T15:36:35.989Z,99.90
2018-08-18T15:39:10.375Z,99.90
2018-08-18T15:41:44.564Z,99.90
2018-08-18T15:44:20.982Z,99.90
2018-08-18T15:46:55.456Z,99.90
2018-08-18T15:49:29.123Z,99.90
2018-08-18T15:52:02.979Z,99.90
2018-08-18T15:54:36.431Z,99.90
2018-08-18T15:57:09.617Z,99.90
2018-08-18T15:59:43.315Z,99.90
2018-08-18T16:02:18.080Z,99.90
2018-08-18T16:04:51.604Z,99.90
2018-08-18T16:07:25.693Z,99.90
2018-08-18T16:10:00.950Z,99.90
2018-08-18T16:12:34.925Z,99.90
2018-08-18T16:15:08.299Z,99.90
2018-08-18T16:17:43.087Z,99.90
2018-08-18T16:20:20.704Z,99.90
2018-08-18T16:22:56.373Z,99.90
2018-08-18T16:25:38.135Z,99.90
2018-08-18T16:28:12.319Z,99.90
2018-08-18T16:30:46.275Z,99.90
2018-08-18T16:33:25.318Z,99.90
2018-08-18T16:35:59.700Z,99.90
2018-08-18T16:38:33.522Z,99.90
2018-08-18T16:41:07.287Z,99.90
2018-08-18T16:43:41.005Z,99.90
2018-08-18T16:46:27.769Z,99.90
2018-08-18T16:49:02.204Z,99.90
2018-08-18T16:51:36.138Z,99.90
2018-08-18T16:54:22.055Z,99.90
2018-08-18T16:56:57.957Z,99.90
2018-08-18T16:59:32.570Z,99.90
2018-08-18T17:02:07.864Z,99.90
2018-08-18T17:04:40.908Z,99.90
2018-08-18T17:07:18.778Z,99.90
2018-08-18T17:09:52.040Z,99.90
2018-08-18T17:12:32.820Z,99.90
2018-08-18T17:15:06.599Z,99.90
2018-08-18T17:17:39.945Z,99.90
2018-08-18T17:20:13.651Z,99.90
2018-08-18T17:22:48.558Z,99.90
2018-08-18T17:25:23.332Z,99.90
2018-08-18T17:27:56.732Z,99.90
2018-08-18T17:30:29.932Z,99.90
2018-08-18T17:33:03.299Z,99.90
2018-08-18T17:35:40.960Z,99.90
2018-08-18T17:38:16.881Z,99.90
2018-08-18T17:40:52.883Z,99.90
2018-08-18T17:43:26.147Z,99.90
2018-08-18T17:46:02.510Z,99.90
2018-08-18T17:48:44.397Z,99.90
2018-08-18T17:51:18.288Z,99.90
2018-08-18T17:53:56.224Z,99.90
2018-08-18T17:56:29.826Z,99.90
2018-08-18T17:59:03.648Z,99.90
2018-08-18T18:01:43.779Z,99.90
2018-08-18T18:04:17.914Z,99.90
2018-08-18T18:06:51.385Z,99.90
2018-08-18T18:09:24.948Z,99.90
2018-08-18T18:11:58.615Z,99.90
2018-08-18T18:14:32.109Z,99.90
2018-08-18T18:17:05.409Z,99.90
2018-08-18T18:19:38.505Z,99.90
2018-08-18T18:22:12.253Z,99.90
2018-08-18T18:24:47.145Z,99.90
2018-08-18T18:27:20.882Z,99.90
2018-08-18T18:29:54.431Z,99.90
2018-08-18T18:32:27.938Z,99.90
2018-08-18T18:35:01.262Z,99.90
2018-08-18T18:37:35.966Z,99.90
2018-08-18T18:40:14.124Z,99.90
2018-08-18T18:42:47.271Z,99.90
2018-08-18T18:45:21.974Z,99.90
2018-08-18T18:47:55.270Z,99.90
2018-08-18T18:50:28.609Z,99.90
2018-08-18T18:53:05.687Z,99.90
2018-08-18T18:55:49.884Z,99.90
2018-08-18T18:58:27.052Z,99.90
2018-08-18T19:01:07.763Z,99.90
2018-08-18T19:03:41.294Z,99.70
2018-08-18T19:06:15.633Z,99.40
2018-08-18T19:09:00.591Z,99.50
2018-08-18T19:11:34.043Z,99.80
2018-08-18T19:14:07.673Z,99.80
2018-08-18T19:16:41.067Z,99.80
2018-08-18T19:19:14.883Z,99.60
2018-08-18T19:21:49.519Z,99.50
2018-08-18T19:24:27.452Z,99.90
2018-08-18T19:27:02.911Z,99.70
2018-08-18T19:29:36.399Z,99.20
2018-08-18T19:32:12.668Z,99.20
2018-08-18T19:34:46.094Z,98.60
2018-08-18T19:37:20.757Z,98.20
2018-08-18T19:39:54.839Z,98.90
2018-08-18T19:42:29.230Z,98.70
2018-08-18T19:45:04.480Z,98.60
2018-08-18T19:47:38.732Z,98.90
2018-08-18T19:50:14.303Z,98.20
2018-08-18T19:52:48.615Z,98.20
2018-08-18T19:55:23.712Z,98.30
2018-08-18T19:57:57.141Z,98.30
2018-08-18T20:00:31.182Z,97.70
2018-08-18T20:03:12.457Z,98.80
2018-08-18T20:05:46.271Z,98.40
2018-08-18T20:08:22.997Z,98.10
2018-08-18T20:10:57.975Z,98.00
2018-08-18T20:20:26.561Z,97.30
2018-08-18T20:23:00.013Z,96.90
2018-08-18T20:25:33.599Z,96.50
2018-08-18T20:28:07.704Z,96.90
2018-08-18T20:30:40.999Z,96.00
2018-08-18T20:33:16.352Z,96.00
2018-08-18T20:35:49.708Z,95.80
2018-08-18T20:38:23.875Z,95.70
2018-08-18T20:40:57.162Z,95.90
2018-08-18T20:43:31.330Z,95.70
2018-08-18T20:46:05.230Z,95.00
2018-08-18T20:48:40.284Z,95.10
2018-08-18T20:51:14.104Z,95.30
2018-08-18T20:53:47.192Z,96.10
2018-08-18T20:56:21.092Z,95.00
2018-08-18T20:58:57.617Z,94.70
2018-08-18T21:01:30.981Z,94.30
2018-08-18T21:04:04.293Z,94.50
2018-08-18T21:06:37.481Z,94.10
2018-08-18T21:09:23.757Z,94.60
2018-08-18T21:11:57.224Z,94.10
2018-08-18T21:14:33.607Z,93.20
2018-08-18T21:17:06.944Z,93.40
2018-08-18T21:19:40.605Z,94.00
2018-08-18T21:22:16.815Z,93.00
2018-08-18T21:24:49.999Z,93.20
2018-08-18T21:27:23.336Z,92.50
2018-08-18T21:29:59.011Z,92.30
2018-08-18T21:32:32.308Z,92.70
2018-08-18T21:35:05.508Z,93.40
2018-08-18T21:37:39.471Z,92.00
2018-08-18T21:40:13.652Z,92.90
2018-08-18T21:42:47.402Z,91.30
2018-08-18T21:45:21.011Z,91.40
2018-08-18T21:47:54.833Z,91.00
2018-08-18T21:50:29.603Z,91.80
2018-08-18T21:53:02.909Z,90.40
2018-08-18T21:55:37.522Z,90.50
2018-08-18T21:58:11.353Z,91.00
2018-08-18T22:00:50.840Z,91.00
2018-08-18T22:03:24.550Z,90.50
2018-08-18T22:05:58.377Z,90.10
2018-08-18T22:08:33.218Z,90.20
2018-08-18T22:11:06.626Z,90.00
2018-08-18T22:13:48.977Z,90.00
2018-08-18T22:16:22.672Z,88.70
2018-08-18T22:19:05.464Z,90.00
2018-08-18T22:21:38.990Z,88.40
2018-08-18T22:24:12.739Z,90.20
2018-08-18T22:26:46.972Z,90.90
2018-08-18T22:29:20.923Z,88.80
2018-08-18T22:31:54.352Z,86.70
2018-08-18T22:34:29.200Z,87.30
2018-08-18T22:37:10.799Z,85.60
2018-08-18T22:39:44.403Z,88.00
2018-08-18T22:42:18.376Z,86.30
2018-08-18T22:44:51.664Z,86.10
2018-08-18T22:47:25.642Z,83.00
2018-08-18T22:49:59.985Z,83.10
2018-08-18T22:52:33.210Z,79.90
2018-08-18T22:55:06.582Z,82.60
2018-08-18T22:57:40.623Z,80.70
2018-08-18T23:00:13.971Z,81.10
2018-08-18T23:02:48.473Z,81.50
2018-08-18T23:05:24.949Z,80.00
2018-08-18T23:08:00.134Z,80.30
2018-08-18T23:10:34.473Z,79.70
2018-08-18T23:13:08.687Z,79.90
2018-08-18T23:15:42.025Z,80.30
2018-08-18T23:18:15.557Z,82.70
2018-08-18T23:20:48.666Z,81.70
2018-08-18T23:23:22.210Z,80.90
2018-08-18T23:25:56.947Z,82.00
2018-08-18T23:28:30.575Z,80.90
2018-08-18T23:31:04.163Z,80.00
2018-08-18T23:33:37.774Z,80.00
2018-08-18T23:36:11.937Z,80.40
2018-08-18T23:39:01.034Z,82.30
2018-08-18T23:41:36.324Z,81.70
2018-08-18T23:44:09.922Z,83.30
2018-08-18T23:46:44.315Z,79.30
2018-08-18T23:49:17.553Z,77.80
2018-08-18T23:51:53.870Z,78.00
2018-08-18T23:54:27.085Z,76.20
2018-08-18T23:57:02.456Z,78.20
2018-08-18T23:59:37.812Z,78.80
